Time;durP1;ratioP1;P1;durP2;ratioP2;P2;SDS_P1;SDS_P2;PMS_P1;PMS_P2;Temp;Humidity;BMP_temperature;BMP_pressure;BME280_temperature;BME280_humidity;BME280_pressure;Samples;Min_cycle;Max_cycle;Signal;HPM_P1;HPM_P2
2022/03/10 00:02:15;;;;;;;;;48.25;38.50;;;;;10.95;53.53;101656.34;5035080;28;45495;-67
2022/03/10 00:04:40;;;;;;;;;47.00;39.25;;;;;10.93;53.54;101660.72;5038400;28;45343;-69
2022/03/10 00:07:05;;;;;;;;;45.75;38.75;;;;;10.89;53.75;101654.72;5034992;28;45438;-69
2022/03/10 00:09:32;;;;;;;;;48.50;38.75;;;;;10.88;53.22;101654.75;5034131;28;45428;-68
2022/03/10 00:11:58;;;;;;;;;47.00;36.75;;;;;10.84;53.53;101651.31;5033006;28;45424;-68
2022/03/10 00:14:23;;;;;;;;;48.25;36.75;;;;;10.83;53.26;101652.22;5031591;28;45616;-69
2022/03/10 00:16:49;;;;;;;;;48.75;38.25;;;;;10.82;53.88;101658.28;5035857;28;45477;-69
2022/03/10 00:19:16;;;;;;;;;44.75;37.00;;;;;10.80;53.72;101649.63;5028018;28;45348;-69
2022/03/10 00:21:41;;;;;;;;;48.25;39.25;;;;;10.76;53.54;101653.16;5034925;28;47184;-68
2022/03/10 00:24:07;;;;;;;;;45.50;35.75;;;;;10.76;53.85;101652.28;5037954;28;45496;-68
2022/03/10 00:26:32;;;;;;;;;47.25;38.50;;;;;10.72;53.48;101655.81;5037567;28;45986;-68
2022/03/10 00:28:58;;;;;;;;;45.00;39.00;;;;;10.69;53.70;101651.53;5029369;28;45438;-68
2022/03/10 00:31:23;;;;;;;;;44.50;38.00;;;;;10.67;53.80;101658.50;5031224;28;45411;-66
2022/03/10 00:33:48;;;;;;;;;57.25;37.75;;;;;10.62;54.09;101655.09;5028309;28;45348;-66
2022/03/10 00:36:14;;;;;;;;;53.25;39.75;;;;;10.62;53.66;101670.69;5026477;28;45300;-66
2022/03/10 00:38:40;;;;;;;;;45.25;35.50;;;;;10.59;54.37;101668.97;5038269;28;45299;-66
2022/03/10 00:41:05;;;;;;;;;43.25;36.25;;;;;10.55;53.88;101667.28;5038731;28;45412;-69
2022/03/10 00:43:31;;;;;;;;;44.50;37.75;;;;;10.53;54.33;101657.81;5026450;28;45629;-71
2022/03/10 00:45:56;;;;;;;;;46.25;37.00;;;;;10.51;54.27;101663.03;5038134;28;45481;-71
2022/03/10 00:48:21;;;;;;;;;37.25;35.25;;;;;10.47;53.82;101666.53;5039104;28;45243;-72
2022/03/10 00:50:47;;;;;;;;;40.75;37.75;;;;;10.46;54.07;101671.75;5037140;28;46430;-72
2022/03/10 00:53:12;;;;;;;;;48.50;38.00;;;;;10.42;54.44;101672.69;5035988;28;45907;-72
2022/03/10 00:55:37;;;;;;;;;47.75;34.50;;;;;10.36;54.44;101666.66;5036481;28;45611;-72
2022/03/10 00:58:03;;;;;;;;;53.50;39.00;;;;;10.39;54.42;101664.91;5024550;28;45592;-71
2022/03/10 01:00:29;;;;;;;;;48.00;40.25;;;;;10.36;54.30;101658.00;5023795;28;45926;-72
2022/03/10 01:02:55;;;;;;;;;45.25;36.75;;;;;10.34;54.65;101675.34;5029580;28;45634;-72
2022/03/10 01:05:21;;;;;;;;;39.50;33.75;;;;;10.31;54.89;101667.59;5032429;28;45565;-73
2022/03/10 01:07:47;;;;;;;;;47.25;36.00;;;;;10.29;54.80;101675.41;5027749;28;45323;-71
2022/03/10 01:10:14;;;;;;;;;40.00;36.25;;;;;10.27;55.12;101669.38;5025869;28;45501;-73
2022/03/10 01:12:42;;;;;;;;;45.25;36.50;;;;;10.24;54.76;101676.34;5031810;28;45321;-75
2022/03/10 01:15:09;;;;;;;;;47.75;38.50;;;;;10.20;55.12;101670.25;5019677;28;45312;-72
2022/03/10 01:17:35;;;;;;;;;41.50;36.75;;;;;10.16;55.06;101667.72;5018317;28;46127;-74
2022/03/10 01:20:01;;;;;;;;;49.25;36.75;;;;;10.14;54.88;101670.34;5020792;28;45466;-74
2022/03/10 01:22:26;;;;;;;;;52.75;39.25;;;;;10.13;55.36;101666.03;5030681;28;45360;-72
2022/03/10 01:24:51;;;;;;;;;54.75;39.00;;;;;10.12;55.51;101674.69;5021199;28;45309;-71
2022/03/10 01:27:17;;;;;;;;;43.50;35.75;;;;;10.11;54.99;101669.53;5030572;28;45383;-71
2022/03/10 01:29:42;;;;;;;;;46.75;34.50;;;;;10.07;55.39;101666.97;5021278;28;46025;-71
2022/03/10 01:32:08;;;;;;;;;52.25;37.50;;;;;10.06;55.25;101657.44;5030407;28;45257;-70
2022/03/10 01:34:34;;;;;;;;;42.50;34.50;;;;;10.05;55.09;101657.47;5019251;28;45261;-71
2022/03/10 01:36:59;;;;;;;;;41.75;34.50;;;;;10.03;55.73;101662.69;5028214;28;45329;-72
2022/03/10 01:39:25;;;;;;;;;46.00;36.75;;;;;10.03;55.05;101654.91;5037100;28;45324;-71
2022/03/10 01:41:50;;;;;;;;;51.25;35.75;;;;;10.01;55.30;101661.84;5032193;28;45492;-71
2022/03/10 01:44:16;;;;;;;;;51.00;37.00;;;;;10.00;55.28;101654.03;5032561;28;45242;-69
2022/03/10 01:46:41;;;;;;;;;34.75;33.00;;;;;9.98;55.04;101651.47;5026176;28;45169;-69
2022/03/10 01:49:07;;;;;;;;;43.00;36.75;;;;;9.97;54.81;101654.94;5038019;28;45305;-69
2022/03/10 01:51:34;;;;;;;;;42.75;35.75;;;;;9.95;55.52;101661.03;5026191;28;45458;-69
2022/03/10 01:54:01;;;;;;;;;39.00;32.00;;;;;9.93;55.36;101655.84;5025462;28;45271;-69
2022/03/10 01:56:27;;;;;;;;;42.75;32.50;;;;;9.92;55.57;101651.53;5031376;28;45520;-69
2022/03/10 01:58:54;;;;;;;;;43.00;36.00;;;;;9.91;55.10;101655.00;5032262;28;46397;-69
2022/03/10 02:01:20;;;;;;;;;36.25;35.00;;;;;9.88;55.90;101655.03;5026781;28;45258;-70
2022/03/10 02:03:46;;;;;;;;;37.25;33.25;;;;;9.88;55.74;101657.63;5025522;28;45426;-70
2022/03/10 02:06:13;;;;;;;;;43.50;36.25;;;;;9.86;55.49;101656.78;5037701;28;45272;-70
2022/03/10 02:11:24;;;;;;;;;44.25;34.75;;;;;9.80;55.29;101650.78;5033370;28;45308;-70
2022/03/10 02:13:50;;;;;;;;;33.50;30.25;;;;;9.79;55.60;101649.06;5024484;28;45236;-70
2022/03/10 02:19:03;;;;;;;;;51.00;35.50;;;;;9.73;56.07;101643.06;5022089;28;45392;-79
2022/03/10 02:21:28;;;;;;;;;36.75;31.00;;;;;9.72;55.73;101648.28;5035487;28;45898;-79
2022/03/10 02:23:53;;;;;;;;;42.50;32.75;;;;;9.69;55.90;101648.31;5029659;28;45328;-80
2022/03/10 02:26:19;;;;;;;;;29.25;25.50;;;;;9.68;55.82;101654.38;5028952;28;45319;-79
2022/03/10 02:28:46;;;;;;;;;45.75;35.50;;;;;9.66;55.89;101643.16;5034733;28;46254;-79
2022/03/10 02:31:11;;;;;;;;;39.25;32.50;;;;;9.65;55.79;101650.06;5035301;28;45232;-79
2022/03/10 02:33:37;;;;;;;;;44.75;33.75;;;;;9.62;56.22;101652.69;5029649;28;45200;-73
2022/03/10 02:36:04;;;;;;;;;38.50;33.75;;;;;9.61;55.50;101652.69;5040473;28;45501;-74
2022/03/10 02:38:30;;;;;;;;;41.75;30.50;;;;;9.60;55.90;101653.56;5039936;28;47323;-72
2022/03/10 02:40:56;;;;;;;;;38.75;31.75;;;;;9.59;55.60;101662.22;5041962;28;45879;-73
2022/03/10 02:43:22;;;;;;;;;35.25;30.75;;;;;9.59;55.67;101651.84;5034399;28;45391;-74
2022/03/10 02:45:48;;;;;;;;;36.75;30.00;;;;;9.57;55.58;101653.59;5034861;28;45631;-74
2022/03/10 02:48:14;;;;;;;;;30.75;27.50;;;;;9.56;55.36;101657.91;5040997;28;46270;-74
2022/03/10 02:50:40;;;;;;;;;36.50;27.75;;;;;9.56;55.04;101647.53;5028614;28;45473;-74
2022/03/10 02:53:05;;;;;;;;;30.50;26.25;;;;;9.58;55.22;101656.16;5035190;28;45348;-73
2022/03/10 02:55:31;;;;;;;;;39.25;29.25;;;;;9.59;55.34;101657.03;5034797;28;45248;-74
2022/03/10 02:57:57;;;;;;;;;31.75;24.25;;;;;9.61;54.47;101655.28;5034848;28;45654;-73
2022/03/10 03:00:22;;;;;;;;;41.00;31.75;;;;;9.60;55.01;101650.97;5034952;28;45301;-72
2022/03/10 03:02:48;;;;;;;;;32.00;27.00;;;;;9.63;54.53;101656.16;5028288;28;45281;-72
2022/03/10 03:05:13;;;;;;;;;39.25;28.75;;;;;9.64;54.55;101648.34;5036712;28;45539;-75
2022/03/10 03:07:39;;;;;;;;;35.75;29.50;;;;;9.66;54.59;101658.72;5034608;28;46124;-75
2022/03/10 03:10:06;;;;;;;;;36.25;30.25;;;;;9.65;54.29;101660.44;5034961;28;45280;-75
2022/03/10 03:12:32;;;;;;;;;35.50;30.50;;;;;9.65;54.36;101651.81;5022848;28;45347;-71
2022/03/10 03:14:58;;;;;;;;;33.25;28.25;;;;;9.67;54.68;101655.25;5034660;28;45504;-71
2022/03/10 03:17:24;;;;;;;;;37.00;30.00;;;;;9.67;54.03;101658.69;5028633;28;46198;-71
2022/03/10 03:19:50;;;;;;;;;35.00;29.75;;;;;9.66;54.01;101656.97;5027179;28;45764;-72
2022/03/10 03:22:16;;;;;;;;;33.75;27.75;;;;;9.67;54.15;101663.03;5028084;28;45348;-72
2022/03/10 03:24:42;;;;;;;;;32.25;27.50;;;;;9.67;53.84;101665.63;5027412;28;45276;-72
2022/03/10 03:27:08;;;;;;;;;40.25;28.00;;;;;9.67;54.38;101665.63;5033633;28;45255;-72
2022/03/10 03:29:33;;;;;;;;;34.00;29.00;;;;;9.63;54.58;101672.59;5034984;28;45753;-71
2022/03/10 03:31:59;;;;;;;;;33.75;26.00;;;;;9.63;54.65;101670.00;5040969;28;45559;-72
2022/03/10 03:34:25;;;;;;;;;41.25;37.00;;;;;9.62;54.72;101673.47;5027337;28;45236;-72
2022/03/10 03:36:50;;;;;;;;;39.50;27.00;;;;;9.60;54.24;101670.00;5031419;28;46138;-72
2022/03/10 03:39:16;;;;;;;;;37.25;28.50;;;;;9.57;54.34;101672.63;5032842;28;45565;-72
2022/03/10 03:41:41;;;;;;;;;34.50;29.25;;;;;9.58;54.14;101679.53;5035045;28;45555;-73
2022/03/10 03:44:08;;;;;;;;;28.00;25.50;;;;;9.58;54.51;101670.88;5033555;28;45269;-72
2022/03/10 03:46:34;;;;;;;;;35.00;27.75;;;;;9.57;54.69;101669.16;5038419;28;46636;-72
2022/03/10 03:48:59;;;;;;;;;33.75;27.50;;;;;9.56;54.11;101677.81;5038001;28;45497;-75
2022/03/10 03:51:25;;;;;;;;;42.75;27.75;;;;;9.56;54.14;101670.91;5038398;28;45366;-69
2022/03/10 03:53:51;;;;;;;;;44.25;31.25;;;;;9.54;54.21;101671.78;5025152;28;45517;-69
2022/03/10 03:56:17;;;;;;;;;40.50;31.00;;;;;9.53;54.13;101676.13;5031655;28;46207;-69
2022/03/10 03:58:42;;;;;;;;;40.25;33.25;;;;;9.54;54.36;101675.25;5029889;28;45609;-69
2022/03/10 04:01:08;;;;;;;;;39.00;33.00;;;;;9.53;54.57;101677.84;5031892;28;45346;-69
2022/03/10 04:03:33;;;;;;;;;31.50;25.75;;;;;9.52;54.62;101679.59;5030963;28;45281;-69
2022/03/10 04:05:58;;;;;;;;;46.75;33.00;;;;;9.50;54.23;101676.16;5024830;28;45341;-69
2022/03/10 04:08:25;;;;;;;;;33.50;31.50;;;;;9.49;54.70;101673.56;5033647;28;45423;-67
2022/03/10 04:10:51;;;;;;;;;38.00;32.00;;;;;9.47;54.51;101672.72;5024261;28;45284;-69
2022/03/10 04:13:17;;;;;;;;;29.50;26.25;;;;;9.47;55.05;101677.91;5023140;28;45883;-69
2022/03/10 04:15:42;;;;;;;;;42.25;33.25;;;;;9.45;54.66;101688.31;5022622;28;45790;-69
2022/03/10 04:18:08;;;;;;;;;43.75;27.25;;;;;9.46;54.70;101690.03;5024945;28;45749;-69
2022/03/10 04:20:33;;;;;;;;;34.50;29.50;;;;;9.43;54.49;101688.31;5031204;28;45471;-69
2022/03/10 04:22:58;;;;;;;;;36.00;26.00;;;;;9.43;54.90;101687.47;5029012;28;45480;-69
2022/03/10 04:25:24;;;;;;;;;42.00;29.00;;;;;9.41;54.66;101689.16;5036991;28;47196;-69
2022/03/10 04:27:51;;;;;;;;;36.25;32.50;;;;;9.39;54.70;101688.31;5038376;28;45530;-69
2022/03/10 04:30:18;;;;;;;;;31.50;22.75;;;;;9.37;54.69;101697.84;5032699;28;45570;-68
2022/03/10 04:32:46;;;;;;;;;38.25;28.75;;;;;9.34;54.66;101693.56;5032086;28;45209;-68
2022/03/10 04:35:14;;;;;;;;;34.50;28.50;;;;;9.34;54.73;101701.34;5023839;28;46617;-69
2022/03/10 04:37:39;;;;;;;;;39.50;28.00;;;;;9.30;55.14;101696.19;5024240;28;45639;-68
2022/03/10 04:40:06;;;;;;;;;38.25;29.25;;;;;9.30;55.07;101697.03;5037514;28;45665;-69
2022/03/10 04:42:37;;;;;;;;;36.75;28.00;;;;;9.28;54.79;101701.38;5024862;28;45626;-68
2022/03/10 04:45:03;;;;;;;;;32.50;28.50;;;;;9.26;55.38;101692.75;5024816;28;45388;-68
2022/03/10 04:47:29;;;;;;;;;34.50;26.50;;;;;9.23;54.68;101697.97;5036915;28;45465;-68
2022/03/10 04:49:55;;;;;;;;;38.75;30.75;;;;;9.22;55.08;101697.97;5038441;28;45363;-68
2022/03/10 04:52:21;;;;;;;;;33.00;28.25;;;;;9.20;54.65;101703.16;5039106;28;45364;-68
2022/03/10 04:54:46;;;;;;;;;38.50;28.25;;;;;9.19;55.21;101703.16;5027200;28;46191;-68
2022/03/10 04:57:11;;;;;;;;;41.25;28.00;;;;;9.17;55.38;101697.13;5026535;28;45353;-68
2022/03/10 04:59:37;;;;;;;;;38.50;29.75;;;;;9.17;55.32;101703.19;5032474;28;45196;-68
2022/03/10 05:02:03;;;;;;;;;33.00;28.25;;;;;9.17;55.26;101698.00;5032929;28;45375;-68
2022/03/10 05:04:28;;;;;;;;;30.00;23.00;;;;;9.12;55.40;101694.56;5026978;28;46307;-68
2022/03/10 05:06:53;;;;;;;;;47.75;31.75;;;;;9.12;55.73;101698.03;5034778;28;45201;-68
2022/03/10 05:09:22;;;;;;;;;34.00;26.75;;;;;9.11;56.14;101695.44;5026170;28;45258;-68
2022/03/10 05:11:47;;;;;;;;;41.25;26.00;;;;;9.09;56.26;101684.22;5038157;28;45287;-68
2022/03/10 05:14:12;;;;;;;;;40.00;33.75;;;;;9.07;56.41;101698.94;5031160;28;45595;-68
2022/03/10 05:16:38;;;;;;;;;45.75;32.00;;;;;9.05;56.38;101695.50;5032859;28;45399;-68
2022/03/10 05:19:03;;;;;;;;;46.75;38.00;;;;;9.01;56.27;101688.56;5027398;28;45319;-68
2022/03/10 05:21:28;;;;;;;;;48.25;33.00;;;;;9.00;56.47;101690.31;5025857;28;45470;-67
2022/03/10 05:23:54;;;;;;;;;45.75;30.75;;;;;8.98;56.61;101697.22;5031591;28;45270;-67
2022/03/10 05:26:19;;;;;;;;;42.50;34.00;;;;;8.96;56.72;101691.19;5032442;28;45339;-68
2022/03/10 05:28:45;;;;;;;;;34.00;28.25;;;;;8.92;56.45;101694.69;5027708;28;45503;-67
2022/03/10 05:31:10;;;;;;;;;40.25;31.75;;;;;8.88;57.08;101685.22;5025953;28;45284;-71
2022/03/10 05:33:36;;;;;;;;;42.25;33.00;;;;;8.88;56.83;101695.56;5031459;28;46439;-67
2022/03/10 05:36:01;;;;;;;;;41.75;34.50;;;;;8.86;57.20;101693.88;5032320;28;45275;-67
2022/03/10 05:38:26;;;;;;;;;45.00;40.00;;;;;8.81;57.11;101686.97;5034635;28;45428;-68
2022/03/10 05:40:52;;;;;;;;;48.25;35.75;;;;;8.80;57.30;101693.00;5019263;28;45211;-68
2022/03/10 05:43:17;;;;;;;;;48.75;37.50;;;;;8.80;57.45;101690.41;5032028;28;45380;-68
2022/03/10 05:45:43;;;;;;;;;50.50;38.50;;;;;8.80;57.42;101700.78;5033892;28;45423;-66
2022/03/10 05:48:08;;;;;;;;;41.50;30.00;;;;;8.78;57.57;101694.75;5042096;28;45725;-66
2022/03/10 05:50:35;;;;;;;;;39.00;31.50;;;;;8.77;57.32;101687.84;5029802;28;45446;-67
2022/03/10 05:53:00;;;;;;;;;26.25;21.50;;;;;8.75;57.38;101689.56;5040116;28;47294;-66
2022/03/10 05:55:26;;;;;;;;;34.50;32.50;;;;;8.77;57.36;101692.16;5042562;28;45387;-65
2022/03/10 05:57:52;;;;;;;;;40.25;29.00;;;;;8.76;57.38;101693.91;5028998;28;45325;-66
2022/03/10 06:00:19;;;;;;;;;38.50;26.00;;;;;8.76;57.47;101691.31;5039582;28;45415;-65
2022/03/10 06:02:44;;;;;;;;;35.00;29.50;;;;;8.76;57.86;101699.06;5040456;28;45649;-64
2022/03/10 06:05:10;;;;;;;;;36.50;27.00;;;;;8.77;58.07;101703.38;5040737;28;45478;-64
2022/03/10 06:07:36;;;;;;;;;38.50;30.25;;;;;8.76;58.03;101703.41;5040364;28;45462;-65
2022/03/10 06:10:03;;;;;;;;;40.25;27.50;;;;;8.76;57.66;101698.22;5040646;28;45564;-65
2022/03/10 06:12:28;;;;;;;;;40.25;31.25;;;;;8.75;57.45;101692.16;5039091;28;45355;-66
2022/03/10 06:14:55;;;;;;;;;35.75;28.00;;;;;8.77;57.90;101702.53;5040571;28;45233;-66
2022/03/10 06:17:21;;;;;;;;;41.00;32.75;;;;;8.76;58.17;101700.81;5040126;28;45586;-62
2022/03/10 06:19:47;;;;;;;;;40.00;29.50;;;;;8.76;57.91;101704.25;5040350;28;45388;-67
2022/03/10 06:22:25;;;;;;;;;38.00;28.75;;;;;8.75;57.96;101694.75;5036493;28;48617;-68
2022/03/10 06:24:51;;;;;;;;;53.00;37.00;;;;;8.77;58.25;101698.22;5038028;28;45460;-68
2022/03/10 06:27:18;;;;;;;;;40.25;35.50;;;;;8.80;57.90;101705.97;5040448;28;45483;-69
2022/03/10 06:29:44;;;;;;;;;37.75;31.00;;;;;8.79;57.91;101699.06;5040240;28;45416;-69
2022/03/10 06:32:12;;;;;;;;;45.50;38.25;;;;;8.80;58.06;101708.56;5038153;28;47423;-65
2022/03/10 06:34:38;;;;;;;;;34.75;31.50;;;;;8.81;58.46;101712.03;5039294;28;46219;-75
2022/03/10 06:37:07;;;;;;;;;37.50;30.50;;;;;8.81;58.14;101706.84;5038921;28;45362;-68
2022/03/10 06:39:33;;;;;;;;;40.00;34.00;;;;;8.82;58.29;101699.06;5040081;28;45243;-70
2022/03/10 06:41:59;;;;;;;;;36.50;29.25;;;;;8.84;58.51;101707.69;5039939;28;45594;-67
2022/03/10 06:44:25;;;;;;;;;44.50;34.00;;;;;8.84;58.71;101701.66;5036980;28;45449;-84
2022/03/10 06:46:51;;;;;;;;;42.50;31.00;;;;;8.85;58.74;101705.97;5039310;28;45398;-74
2022/03/10 06:49:17;;;;;;;;;47.00;34.25;;;;;8.88;58.84;101710.28;5039739;28;45328;-66
2022/03/10 06:51:42;;;;;;;;;37.25;31.00;;;;;8.94;58.34;101712.81;5039641;28;45561;-70
2022/03/10 06:54:07;;;;;;;;;44.00;33.25;;;;;8.98;58.42;101717.13;5039132;28;45652;-73
2022/03/10 06:56:33;;;;;;;;;39.50;33.75;;;;;9.02;58.72;101717.13;5039000;28;45394;-76
2022/03/10 06:58:58;;;;;;;;;46.00;40.00;;;;;9.05;58.24;101713.63;5038459;28;45367;-70
2022/03/10 07:01:23;;;;;;;;;44.75;36.25;;;;;9.10;58.51;101709.28;5039484;28;45431;-70
2022/03/10 07:03:51;;;;;;;;;32.50;29.50;;;;;9.13;58.58;101723.09;5037780;28;45686;-70
2022/03/10 07:06:16;;;;;;;;;41.50;32.50;;;;;9.21;58.33;101716.97;5039849;28;45468;-70
2022/03/10 07:08:41;;;;;;;;;46.00;33.75;;;;;9.26;58.06;101720.44;5039084;28;45415;-71
2022/03/10 07:11:07;;;;;;;;;39.00;31.50;;;;;9.28;57.96;101727.31;5039436;28;45515;-73
2022/03/10 07:13:34;;;;;;;;;33.50;29.50;;;;;9.36;58.19;101728.13;5039388;28;45415;-71
2022/03/10 07:15:59;;;;;;;;;32.75;29.50;;;;;9.41;57.87;101730.69;5039209;28;45291;-70
2022/03/10 07:18:25;;;;;;;;;30.75;30.75;;;;;9.40;58.15;101723.78;5039242;28;45301;-67
2022/03/10 07:20:50;;;;;;;;;35.25;34.25;;;;;9.38;57.86;101726.38;5039920;28;46347;-66
2022/03/10 07:23:15;;;;;;;;;37.25;32.00;;;;;9.43;57.78;101735.00;5035340;28;45258;-66
2022/03/10 07:25:43;;;;;;;;;30.75;28.75;;;;;9.48;57.72;101731.53;5031528;28;45296;-65
2022/03/10 07:28:09;;;;;;;;;37.75;26.25;;;;;9.54;58.46;101736.66;5036723;28;45501;-64
2022/03/10 07:30:34;;;;;;;;;38.25;29.25;;;;;9.58;58.32;101733.16;5040437;28;46383;-63
2022/03/10 07:32:59;;;;;;;;;31.75;30.25;;;;;9.63;57.84;101736.59;5036150;28;45339;-63
2022/03/10 07:35:25;;;;;;;;;37.50;29.25;;;;;9.73;57.38;101738.25;5028514;28;45426;-63
2022/03/10 07:37:53;;;;;;;;;30.00;29.75;;;;;9.86;57.64;101733.81;5026776;28;45352;-64
2022/03/10 07:40:20;;;;;;;;;46.25;32.25;;;;;9.95;57.44;101731.13;5038966;28;48137;-63
2022/03/10 07:42:46;;;;;;;;;48.50;28.75;;;;;10.07;57.70;101744.00;5025431;28;45197;-63
2022/03/10 07:45:12;;;;;;;;;49.25;34.25;;;;;10.11;57.00;101742.25;5032687;28;45405;-63
2022/03/10 07:47:37;;;;;;;;;43.50;31.25;;;;;10.09;56.93;101742.25;5034277;28;45348;-63
2022/03/10 07:50:05;;;;;;;;;40.75;34.00;;;;;10.13;57.29;101737.91;5038568;28;47966;-63
2022/03/10 07:52:30;;;;;;;;;40.75;31.00;;;;;10.19;57.03;101740.41;5038500;28;45309;-64
2022/03/10 07:54:56;;;;;;;;;34.75;30.50;;;;;10.19;57.01;101740.41;5031661;28;45313;-64
2022/03/10 07:57:21;;;;;;;;;30.75;26.50;;;;;10.17;56.99;101740.44;5033531;28;45410;-63
2022/03/10 07:59:47;;;;;;;;;42.25;32.50;;;;;10.24;57.56;101738.69;5028721;28;46196;-64
2022/03/10 08:02:13;;;;;;;;;44.00;36.00;;;;;10.33;56.96;101741.19;5025162;28;45298;-63
2022/03/10 08:04:38;;;;;;;;;36.75;33.25;;;;;10.42;56.64;101743.69;5038876;28;45407;-63
2022/03/10 08:07:04;;;;;;;;;44.00;34.25;;;;;10.53;56.60;101739.22;5038221;28;45303;-63
2022/03/10 08:09:29;;;;;;;;;33.75;30.00;;;;;10.56;56.04;101744.38;5028923;28;45297;-63
2022/03/10 08:11:54;;;;;;;;;43.00;36.25;;;;;10.59;56.31;101744.34;5039414;28;45411;-64
2022/03/10 08:14:20;;;;;;;;;38.00;33.25;;;;;10.65;56.40;101746.03;5029189;28;45256;-64
2022/03/10 08:16:45;;;;;;;;;36.00;30.00;;;;;10.72;56.42;101739.88;5026910;28;45227;-64
2022/03/10 08:19:10;;;;;;;;;43.25;33.00;;;;;10.82;56.01;101736.31;5031288;28;45301;-64
2022/03/10 08:21:36;;;;;;;;;51.25;36.25;;;;;10.93;56.02;101744.81;5033333;28;45395;-64
2022/03/10 08:24:01;;;;;;;;;41.75;34.25;;;;;11.02;55.84;101743.84;5028729;28;45356;-64
2022/03/10 08:26:26;;;;;;;;;47.00;32.75;;;;;11.07;55.63;101741.19;5026543;28;45497;-64
2022/03/10 08:28:53;;;;;;;;;40.75;35.50;;;;;11.16;55.34;101744.50;5031409;28;45273;-64
2022/03/10 08:31:19;;;;;;;;;42.00;34.50;;;;;11.23;55.43;101743.56;5033511;28;45419;-64
2022/03/10 08:33:45;;;;;;;;;35.25;29.25;;;;;11.26;54.80;101732.25;5028913;28;45320;-63
2022/03/10 08:36:10;;;;;;;;;30.50;25.25;;;;;11.25;54.87;101730.53;5026410;28;45359;-63
2022/03/10 08:38:36;;;;;;;;;47.75;35.50;;;;;11.35;55.05;101726.03;5037431;28;46232;-63
2022/03/10 08:41:01;;;;;;;;;36.50;28.50;;;;;11.43;54.93;101734.59;5038982;28;45232;-63
2022/03/10 08:43:29;;;;;;;;;35.50;33.75;;;;;11.52;54.78;101729.25;5025356;28;45511;-63
2022/03/10 08:45:55;;;;;;;;;38.25;30.00;;;;;11.60;54.79;101729.97;5025740;28;45280;-63
2022/03/10 08:48:21;;;;;;;;;32.00;21.25;;;;;11.73;54.61;101721.09;5039010;28;45567;-63
2022/03/10 08:50:46;;;;;;;;;37.50;27.75;;;;;11.79;54.47;101728.81;5026203;28;45186;-63
2022/03/10 08:53:12;;;;;;;;;34.50;27.25;;;;;11.86;54.24;101721.78;5032810;28;45320;-63
2022/03/10 08:55:37;;;;;;;;;43.00;30.75;;;;;11.95;54.04;101723.34;5032861;28;45367;-63
2022/03/10 08:58:03;;;;;;;;;42.50;30.25;;;;;12.06;53.97;101719.69;5026765;28;46286;-63
2022/03/10 09:00:28;;;;;;;;;29.75;29.00;;;;;12.14;53.71;101725.59;5025620;28;45381;-63
2022/03/10 09:02:54;;;;;;;;;40.75;33.00;;;;;12.20;53.41;101724.63;5039130;28;45304;-63
2022/03/10 09:05:19;;;;;;;;;35.00;28.25;;;;;12.23;53.53;101711.56;5025635;28;45529;-64
2022/03/10 09:07:45;;;;;;;;;37.50;31.00;;;;;12.30;53.19;101720.97;5032688;28;46425;-64
2022/03/10 09:10:10;;;;;;;;;36.75;28.50;;;;;12.35;52.99;101716.53;5032775;28;45335;-63
2022/03/10 09:12:37;;;;;;;;;51.00;37.75;;;;;12.36;52.95;101714.78;5026310;28;45363;-63
2022/03/10 09:15:03;;;;;;;;;37.50;28.75;;;;;12.37;52.96;101711.28;5037934;28;45736;-63
2022/03/10 09:17:29;;;;;;;;;33.00;25.25;;;;;12.43;52.72;101714.66;5031989;28;46564;-64
2022/03/10 09:19:54;;;;;;;;;38.50;29.25;;;;;12.56;52.78;101719.59;5033319;28;45233;-63
2022/03/10 09:22:20;;;;;;;;;36.25;29.25;;;;;12.63;52.59;101716.00;5030078;28;45203;-63
2022/03/10 09:24:46;;;;;;;;;36.00;27.00;;;;;12.74;52.36;101716.63;5029247;28;45366;-63
2022/03/10 09:27:11;;;;;;;;;41.75;34.75;;;;;12.88;52.44;101713.72;5038136;28;47189;-63
2022/03/10 09:29:37;;;;;;;;;34.00;30.75;;;;;13.03;52.04;101718.63;5021414;28;45291;-63
2022/03/10 09:32:03;;;;;;;;;44.00;33.75;;;;;13.19;51.89;101708.72;5030377;28;45274;-64
2022/03/10 09:34:28;;;;;;;;;37.25;30.75;;;;;13.25;51.46;101714.66;5029153;28;45401;-63
2022/03/10 09:36:54;;;;;;;;;40.00;32.00;;;;;13.35;51.23;101707.47;5034778;28;45516;-63
2022/03/10 09:39:19;;;;;;;;;46.75;37.75;;;;;13.49;51.30;101713.22;5036783;28;45438;-63
2022/03/10 09:41:45;;;;;;;;;37.50;32.50;;;;;13.59;51.11;101706.03;5036072;28;45296;-64
2022/03/10 09:44:19;;;;;;;;;40.25;29.75;;;;;13.72;50.61;101707.44;5035655;28;45288;-63
2022/03/10 09:46:50;;;;;;;;;34.50;26.50;;;;;13.79;50.20;101701.16;5029832;28;45464;-64
2022/03/10 09:49:21;;;;;;;;;33.50;27.25;;;;;13.69;49.88;101703.16;5040142;28;45898;-63
2022/03/10 09:51:50;;;;;;;;;37.50;28.50;;;;;13.68;49.90;101705.81;5031864;28;45319;-63
2022/03/10 09:54:18;;;;;;;;;28.50;22.25;;;;;13.74;50.06;101710.00;5028911;28;45280;-63
2022/03/10 09:56:47;;;;;;;;;33.75;26.75;;;;;13.82;49.84;101702.84;5041142;28;45523;-63
2022/03/10 09:59:13;;;;;;;;;31.75;27.25;;;;;13.90;50.23;101701.75;5037064;28;45281;-63
2022/03/10 10:01:39;;;;;;;;;27.00;25.50;;;;;14.00;50.25;101704.97;5033813;28;45351;-64
2022/03/10 10:04:06;;;;;;;;;34.75;25.50;;;;;14.10;49.52;101701.22;5041757;28;45383;-64
2022/03/10 10:06:34;;;;;;;;;29.00;23.75;;;;;14.17;49.67;101704.53;5030831;28;46314;-63
2022/03/10 10:08:59;;;;;;;;;30.00;21.50;;;;;14.29;49.45;101698.97;5035245;28;45826;-63
2022/03/10 10:11:35;;;;;;;;;23.75;20.75;;;;;14.38;49.29;101708.31;5033620;28;45458;-63
2022/03/10 10:14:00;;;;;;;;;31.75;24.50;;;;;14.54;49.28;101701.78;5022677;28;45531;-63
2022/03/10 10:16:26;;;;;;;;;32.75;26.50;;;;;14.70;48.88;101695.22;5034354;28;46233;-64
2022/03/10 10:18:57;;;;;;;;;40.00;28.75;;;;;15.17;49.21;101698.16;5028077;28;45261;-64
2022/03/10 10:21:24;;;;;;;;;29.50;23.75;;;;;15.91;47.57;101700.13;5027741;28;45405;-64
2022/03/10 10:23:51;;;;;;;;;35.25;28.00;;;;;16.12;46.94;101694.13;5029085;28;45506;-64
2022/03/10 10:26:19;;;;;;;;;33.75;27.00;;;;;16.24;46.67;101684.97;5028439;28;45687;-64
2022/03/10 10:28:49;;;;;;;;;30.25;26.00;;;;;16.40;46.76;101683.50;5041799;28;45476;-64
2022/03/10 10:31:17;;;;;;;;;29.25;24.25;;;;;17.28;46.89;101681.03;5040686;28;45367;-64
2022/03/10 10:34:14;;;;;;;;;36.50;29.50;;;;;18.80;44.78;101689.34;5028758;28;45625;-64
2022/03/10 10:36:41;;;;;;;;;32.75;24.75;;;;;19.18;42.71;101679.63;5018590;28;45360;-64
2022/03/10 10:39:09;;;;;;;;;27.75;25.75;;;;;19.27;42.67;101679.22;5039886;28;45418;-64
2022/03/10 10:41:36;;;;;;;;;25.25;23.25;;;;;19.95;42.03;101671.41;5051816;28;45379;-64
2022/03/10 10:44:07;;;;;;;;;30.00;26.50;;;;;19.73;41.20;101667.25;5033357;28;45526;-64
2022/03/10 10:46:36;;;;;;;;;28.50;22.75;;;;;19.36;42.33;101662.94;5027720;28;45463;-64
2022/03/10 10:49:18;;;;;;;;;28.00;25.25;;;;;19.25;41.41;101653.84;5040964;28;45666;-64
2022/03/10 10:51:48;;;;;;;;;29.00;24.50;;;;;20.59;41.03;101658.31;5030662;28;45492;-64
2022/03/10 10:54:26;;;;;;;;;27.50;23.25;;;;;20.70;39.69;101657.72;5027780;28;45178;-64
2022/03/10 10:56:52;;;;;;;;;29.00;23.75;;;;;20.22;39.79;101648.88;5029804;28;46045;-64
2022/03/10 10:59:36;;;;;;;;;25.00;23.00;;;;;20.98;40.55;101645.63;5034445;28;45737;-64
2022/03/10 11:02:10;;;;;;;;;28.25;21.75;;;;;21.31;38.28;101640.22;5034241;28;45341;-64
2022/03/10 11:04:37;;;;;;;;;24.75;24.00;;;;;20.90;38.10;101638.97;5030275;28;45178;-64
2022/03/10 11:07:04;;;;;;;;;20.00;19.00;;;;;20.22;38.12;101638.31;5027717;28;46925;-64
2022/03/10 11:09:31;;;;;;;;;25.25;21.25;;;;;19.65;38.07;101635.16;5031886;28;45642;-64
2022/03/10 11:11:56;;;;;;;;;22.75;17.50;;;;;19.12;39.53;101628.09;5034881;28;45249;-64
2022/03/10 11:14:22;;;;;;;;;22.50;20.25;;;;;18.80;40.11;101631.41;5030433;28;45513;-64
2022/03/10 11:16:49;;;;;;;;;26.50;21.50;;;;;18.59;40.51;101624.50;5027219;28;46099;-64